Newdale, ID (83436)

4:27 AM MDT on April 23, 2017 (GMT -0600)
Wilford area | | Change Station

Elev 4948 ft 43.92 °N, 111.68 °W | Updated 15 seconds ago

Rain
Rain
39.4 °F
Feels Like 39 °F
N
1.8
Wind Variable Wind from NNW
Gusts 2.5 mph

Today
High -- | Low -- °F
--% Chance of Precip.
Yesterday
High -- | Low -- °F
Precip. -- in
Pressure 29.90 in
Visibility 10.0 miles
Clouds Mostly Cloudy 10000 ft
Mostly Cloudy 12000 ft
Windchill 39 °F
Dew Point 37 °F
Humidity 91%
Rainfall 0.00 in
Snow Depth Not available.
6:29 AM 8:20 PM
Waning Crescent, 13% visible
METAR KRXE 230953Z AUTO 00000KT 10SM BKN100 BKN120 04/02 A2993 RMK AO2 SLP124 T00440017
Pressure 29.90 in
Visibility 10.0 miles
Clouds Mostly Cloudy 10000 ft
Mostly Cloudy 12000 ft
Windchill 39 °F
Dew Point 37 °F
Humidity 91%
Rainfall 0.00 in
Snow Depth Not available.
6:29 AM 8:20 PM
Waning Crescent, 13% visible
METAR KRXE 230953Z AUTO 00000KT 10SM BKN100 BKN120 04/02 A2993 RMK AO2 SLP124 T00440017

Get Severe Weather Alerts

Thanks for signing up!

Be on the lookout for a verification email in your inbox.

You'll start receiving the daily forecast at 8 AM.

×

10-Day Weather Forecast

Almanac

Astronomy

Apr. 23, 2017 Rise Set
Actual Time
Civil Twilight
Nautical Twilight
Astronomical Twilight
Moon
Length of Visible Light
Length of Day
Tomorrow will be .
, % of the Moon is Illuminated

Today's Extremes

State Highs State Lows

Community

WunderPhotos

WunderBlog® & News

Nearby

Air Quality

  Air Quality AQ Index Pollutant
Not available.

Snow Depth

Station Depth Elevation

Earthquake Activity

City Distance Mag. Time & Date
Minimum magnitude displayed is 2.5.

Coastal Water Temperatures

Place Temperature

Stations

Nearby Weather Stations

Station Location Temp. Windchill Dew Point Humidity Wind Precip. Elev Updated Type
                   

Watches & Warnings

There are currently no watches in effect.